createdAt,value
2018-11-13T13:07:33.798Z,40.80
2018-11-13T13:10:02.668Z,42.33
2018-11-13T13:12:32.031Z,39.13
2018-11-13T13:15:00.851Z,42.60
2018-11-13T13:17:30.174Z,41.13
2018-11-13T13:20:10.958Z,40.03
2018-11-13T13:22:50.994Z,35.60
2018-11-13T13:25:22.995Z,35.57
2018-11-13T13:30:44.505Z,40.13
2018-11-13T13:33:14.193Z,41.50
2018-11-13T13:35:49.663Z,41.30
2018-11-13T13:38:18.756Z,40.67
2018-11-13T13:40:49.137Z,42.03
2018-11-13T13:43:20.739Z,44.23
2018-11-13T13:46:01.907Z,40.03
2018-11-13T13:49:59.964Z,36.47
2018-11-13T13:52:53.967Z,39.80
2018-11-13T13:59:31.588Z,43.37
2018-11-13T14:05:39.412Z,48.57
2018-11-13T14:08:16.893Z,41.50
2018-11-13T14:10:58.946Z,45.93
2018-11-13T14:13:40.968Z,43.97
2018-11-13T14:16:22.418Z,44.30
2018-11-13T14:19:05.387Z,42.63
2018-11-13T14:21:55.279Z,43.93
2018-11-13T14:25:03.519Z,37.37
2018-11-13T14:28:51.424Z,41.13
2018-11-13T14:31:22.286Z,47.23
2018-11-13T14:33:54.958Z,40.13
2018-11-13T14:36:33.826Z,44.80
2018-11-13T14:46:34.075Z,48.30
2018-11-13T14:49:23.513Z,44.93
2018-11-13T14:52:29.309Z,45.40
2018-11-13T14:55:05.213Z,47.03
2018-11-13T14:57:43.642Z,60.97
2018-11-13T15:00:45.675Z,60.67
2018-11-13T15:03:28.141Z,49.10
2018-11-13T15:06:05.610Z,51.83
2018-11-13T15:08:42.693Z,49.33
2018-11-13T15:11:15.389Z,45.87
2018-11-13T15:13:47.825Z,41.70
2018-11-13T15:16:17.931Z,51.50
2018-11-13T15:18:47.627Z,46.40
2018-11-13T15:21:16.511Z,52.67
2018-11-13T15:23:45.498Z,58.60
2018-11-13T15:26:14.762Z,59.17
2018-11-13T15:28:43.711Z,58.30
2018-11-13T15:31:13.430Z,65.20
2018-11-13T15:33:42.113Z,57.77
2018-11-13T15:36:10.978Z,60.20
2018-11-13T15:38:39.637Z,64.20
2018-11-13T15:41:08.446Z,63.47
2018-11-13T15:43:37.268Z,64.13
2018-11-13T15:46:06.379Z,64.43
2018-11-13T15:48:35.359Z,71.73
2018-11-13T15:51:04.242Z,72.50
2018-11-13T15:53:33.054Z,70.70
2018-11-13T15:56:01.863Z,74.13
2018-11-13T15:58:30.385Z,76.70
2018-11-13T16:00:59.089Z,79.47
2018-11-13T16:03:36.077Z,77.13
2018-11-13T16:06:05.597Z,83.60
2018-11-13T16:08:34.438Z,85.57
2018-11-13T16:11:03.818Z,83.33
2018-11-13T16:13:32.701Z,82.83
2018-11-13T16:16:01.558Z,82.00
2018-11-13T16:18:31.611Z,83.57
2018-11-13T16:21:00.439Z,89.33
2018-11-13T16:23:29.352Z,85.90
2018-11-13T16:25:58.194Z,79.23
2018-11-13T16:28:27.074Z,90.93
2018-11-13T16:31:01.975Z,96.67
2018-11-13T16:33:53.956Z,95.70
2018-11-13T16:36:30.054Z,92.50
2018-11-13T16:39:03.921Z,90.20
2018-11-13T16:41:36.132Z,87.37
2018-11-13T16:44:05.574Z,89.10
2018-11-13T16:46:34.766Z,83.97
2018-11-13T16:49:03.397Z,89.63
2018-11-13T16:51:32.323Z,88.60
2018-11-13T16:54:03.796Z,99.57
2018-11-13T16:56:36.982Z,95.70
2018-11-13T16:59:06.376Z,89.20
2018-11-13T17:01:37.862Z,96.43
2018-11-13T17:04:07.170Z,96.63
2018-11-13T17:06:36.649Z,97.60
2018-11-13T17:09:09.429Z,96.87
2018-11-13T17:11:39.479Z,112.60
2018-11-13T17:14:14.249Z,103.97
2018-11-13T17:17:26.548Z,106.27
2018-11-13T17:20:13.139Z,102.83
2018-11-13T17:26:20.486Z,104.87
2018-11-13T17:29:21.424Z,110.90
2018-11-13T17:32:16.128Z,110.87
2018-11-13T17:34:49.784Z,106.20
2018-11-13T17:37:53.136Z,109.53
2018-11-13T17:40:40.499Z,99.77
2018-11-13T17:43:13.402Z,101.80
2018-11-13T17:45:43.210Z,101.73
2018-11-13T17:48:12.560Z,99.63
2018-11-13T17:50:43.337Z,96.53
2018-11-13T17:53:13.308Z,87.23
2018-11-13T17:55:42.261Z,82.30
2018-11-13T17:58:12.731Z,92.50
2018-11-13T18:00:49.011Z,82.23
2018-11-13T18:06:33.533Z,99.33
2018-11-13T18:09:05.760Z,83.27
2018-11-13T18:11:37.713Z,88.57
2018-11-13T18:14:19.957Z,87.47
2018-11-13T18:16:50.270Z,83.70
2018-11-13T18:19:20.354Z,91.23
2018-11-13T18:21:51.016Z,85.13
2018-11-13T18:24:31.348Z,86.20
2018-11-13T18:27:07.733Z,84.67
2018-11-13T18:29:41.215Z,74.23
2018-11-13T18:32:10.792Z,77.43
2018-11-13T18:34:40.201Z,73.10
2018-11-13T18:37:11.387Z,66.40
2018-11-13T18:39:41.014Z,61.67
2018-11-13T18:42:10.838Z,63.50
2018-11-13T18:44:40.888Z,60.90
2018-11-13T18:47:10.400Z,64.83
2018-11-13T18:49:39.921Z,51.53
2018-11-13T18:52:09.889Z,47.37
2018-11-13T18:54:39.257Z,47.23
2018-11-13T18:57:09.023Z,42.90
2018-11-13T18:59:38.260Z,42.83
2018-11-13T19:02:15.803Z,41.57
2018-11-13T19:04:46.403Z,36.87
2018-11-13T19:07:24.239Z,40.03
2018-11-13T19:09:57.272Z,39.37
2018-11-13T19:12:29.981Z,36.63
2018-11-13T19:15:00.867Z,42.27
2018-11-13T19:17:31.766Z,34.40
2018-11-13T19:20:03.948Z,32.60
2018-11-13T19:22:41.150Z,33.33
2018-11-13T19:25:17.462Z,33.67
2018-11-13T19:28:03.098Z,37.27
2018-11-13T19:30:38.282Z,38.30
2018-11-13T19:33:07.735Z,44.40
2018-11-13T19:35:39.457Z,42.20
2018-11-13T19:38:11.537Z,51.97
2018-11-13T19:40:42.876Z,50.30
2018-11-13T19:43:18.421Z,49.67
2018-11-13T19:45:54.622Z,43.97
2018-11-13T19:48:31.881Z,35.43
2018-11-13T19:51:13.094Z,31.30
2018-11-13T19:53:46.811Z,27.00
2018-11-13T19:56:17.152Z,27.57
2018-11-13T19:58:57.612Z,30.10
2018-11-13T20:01:29.210Z,39.97
2018-11-13T20:04:02.761Z,35.17
2018-11-13T20:06:33.994Z,38.13
2018-11-13T20:09:10.213Z,34.63
2018-11-13T20:11:40.354Z,40.87
2018-11-13T20:14:12.574Z,45.10
2018-11-13T20:16:41.580Z,45.73
2018-11-13T20:19:10.365Z,44.37
2018-11-13T20:21:41.969Z,42.80
2018-11-13T20:24:10.780Z,43.70
2018-11-13T20:26:39.450Z,39.67
2018-11-13T20:29:08.078Z,43.10
2018-11-13T20:31:37.144Z,36.60
2018-11-13T20:34:06.269Z,37.23
2018-11-13T20:36:34.861Z,33.73
2018-11-13T20:39:04.089Z,37.50
2018-11-13T20:41:32.834Z,40.33
2018-11-13T20:44:01.638Z,44.60
2018-11-13T20:46:33.275Z,46.50
2018-11-13T20:49:04.590Z,41.47
2018-11-13T20:51:36.572Z,45.90
2018-11-13T20:54:07.895Z,55.67
2018-11-13T20:56:41.555Z,45.30
2018-11-13T20:59:12.863Z,46.17
2018-11-13T21:01:41.729Z,41.83
2018-11-13T21:04:10.405Z,36.40
2018-11-13T21:06:39.261Z,41.53
2018-11-13T21:09:08.037Z,40.67
2018-11-13T21:11:36.675Z,44.13
2018-11-13T21:14:05.348Z,39.33
2018-11-13T21:16:34.210Z,42.73
2018-11-13T21:19:03.046Z,42.77
2018-11-13T21:21:31.682Z,32.60
2018-11-13T21:24:00.427Z,32.80
2018-11-13T21:26:29.312Z,39.83
2018-11-13T21:28:58.105Z,32.73
2018-11-13T21:31:26.906Z,62.10
2018-11-13T21:33:55.814Z,51.63
2018-11-13T21:36:31.449Z,43.07
2018-11-13T21:39:00.574Z,41.00
2018-11-13T21:41:31.308Z,48.33
2018-11-13T21:44:04.102Z,49.43
2018-11-13T21:46:34.235Z,46.33
2018-11-13T21:49:04.141Z,50.37
2018-11-13T21:51:35.609Z,41.90
2018-11-13T21:54:04.966Z,48.77
2018-11-13T21:56:34.909Z,49.27
2018-11-13T21:59:04.771Z,55.57
2018-11-13T22:01:37.090Z,55.33
2018-11-13T22:04:06.021Z,44.83
2018-11-13T22:06:35.469Z,54.70
2018-11-13T22:09:09.088Z,55.07
2018-11-13T22:11:38.513Z,51.87
2018-11-13T22:14:09.975Z,50.73
2018-11-13T22:16:41.081Z,46.20
2018-11-13T22:19:12.018Z,48.43
2018-11-13T22:21:41.133Z,45.90
2018-11-13T22:24:17.812Z,45.17
2018-11-13T22:26:47.971Z,39.50
2018-11-13T22:29:19.619Z,41.87
2018-11-13T22:31:51.793Z,48.87
2018-11-13T22:34:20.807Z,49.47
2018-11-13T22:36:56.390Z,50.63
2018-11-13T22:39:32.297Z,49.17
2018-11-13T22:42:04.602Z,43.07
2018-11-13T22:44:35.699Z,42.77
2018-11-13T22:47:07.713Z,44.57
2018-11-13T22:49:39.080Z,40.80
2018-11-13T22:52:13.942Z,39.90
2018-11-13T22:54:44.753Z,36.80
2018-11-13T22:57:16.198Z,35.93
2018-11-13T22:59:48.956Z,40.23
2018-11-13T23:02:24.412Z,43.50
2018-11-13T23:05:03.227Z,41.60
2018-11-13T23:07:33.325Z,39.40
2018-11-13T23:10:12.794Z,40.07
2018-11-13T23:12:46.357Z,47.87
2018-11-13T23:15:18.519Z,42.70
2018-11-13T23:17:49.080Z,43.40
2018-11-13T23:20:21.336Z,52.90
2018-11-13T23:22:53.310Z,42.67
2018-11-13T23:25:25.838Z,42.50
2018-11-13T23:27:56.486Z,43.87
2018-11-13T23:30:30.384Z,40.27
2018-11-13T23:33:03.026Z,39.90
2018-11-13T23:35:34.194Z,39.37
2018-11-13T23:38:04.204Z,39.47
2018-11-13T23:43:19.520Z,37.57
2018-11-13T23:45:51.313Z,40.40
2018-11-13T23:48:20.727Z,47.90
2018-11-13T23:50:49.762Z,44.90
2018-11-13T23:53:20.824Z,54.03
2018-11-13T23:55:52.869Z,54.30
2018-11-13T23:58:29.835Z,48.10
